createdAt,value
2022-09-09T00:01:59.708Z,97573.66
2022-09-09T00:07:20.012Z,97562.41
2022-09-09T00:12:31.502Z,97549.41
2022-09-09T00:17:49.359Z,97541.22
2022-09-09T00:23:47.590Z,97399.63
2022-09-09T00:29:05.725Z,97481.59
2022-09-09T00:34:40.763Z,97519.38
2022-09-09T00:39:52.492Z,97487.09
2022-09-09T00:45:05.571Z,97513.53
2022-09-09T00:50:28.441Z,97510.50
2022-09-09T00:56:08.922Z,97513.53
2022-09-09T01:01:13.840Z,97399.00
2022-09-09T01:06:39.221Z,97491.81
2022-09-09T01:12:19.395Z,97496.50
2022-09-09T01:17:29.825Z,97503.25
2022-09-09T01:22:58.986Z,97461.03
2022-09-09T01:28:08.860Z,97505.59
2022-09-09T01:33:16.052Z,97497.19
2022-09-09T01:38:19.438Z,97501.00
2022-09-09T01:43:29.290Z,97484.66
2022-09-09T01:48:33.717Z,97490.53
2022-09-09T01:53:36.578Z,97439.97
2022-09-09T01:58:59.180Z,97481.84
2022-09-09T02:04:10.503Z,97462.81
2022-09-09T02:09:21.070Z,97439.88
2022-09-09T02:14:30.079Z,97431.34
2022-09-09T02:19:41.557Z,97478.50
2022-09-09T02:24:48.119Z,97453.03
2022-09-09T02:29:53.513Z,97453.72
2022-09-09T02:35:02.048Z,97435.47
2022-09-09T02:40:07.849Z,97287.69
2022-09-09T02:45:14.056Z,97484.28
2022-09-09T02:50:25.873Z,97474.88
2022-09-09T02:55:48.565Z,97456.13
2022-09-09T03:11:11.051Z,97332.34
2022-09-09T03:16:14.455Z,97386.81
2022-09-09T03:21:18.082Z,97345.03
2022-09-09T03:26:21.938Z,97342.81
2022-09-09T03:31:26.013Z,97360.31
2022-09-09T03:36:30.188Z,97417.59
2022-09-09T03:41:33.683Z,97423.84
2022-09-09T03:46:37.371Z,97286.09
2022-09-09T03:51:41.515Z,97408.38
2022-09-09T03:56:54.142Z,97362.19
2022-09-09T04:01:59.277Z,97364.88
2022-09-09T04:07:03.214Z,97355.59
2022-09-09T04:12:07.469Z,97358.00
2022-09-09T04:17:10.800Z,97371.94
2022-09-09T04:22:14.168Z,97414.84
2022-09-09T04:27:17.650Z,97368.56
2022-09-09T04:32:21.238Z,97410.84
2022-09-09T04:37:24.838Z,97371.28
2022-09-09T04:42:29.805Z,97388.69
2022-09-09T04:47:33.788Z,97397.09
2022-09-09T04:52:37.877Z,97377.53
2022-09-09T04:57:42.063Z,97349.38
2022-09-09T05:02:45.909Z,97396.81
2022-09-09T05:07:50.005Z,97374.41
2022-09-09T05:12:56.599Z,97404.28
2022-09-09T05:18:04.575Z,97438.06
2022-09-09T05:23:08.438Z,97410.47
2022-09-09T05:28:13.542Z,97422.56
2022-09-09T05:33:16.972Z,97360.78
2022-09-09T05:38:20.827Z,97384.91
2022-09-09T05:43:25.802Z,97383.66
2022-09-09T05:48:31.971Z,97348.97
2022-09-09T05:53:47.157Z,97382.75
2022-09-09T05:58:51.583Z,97402.81
2022-09-09T06:03:55.601Z,97394.41
2022-09-09T06:09:01.935Z,97359.38
2022-09-09T06:14:06.605Z,97340.94
2022-09-09T06:19:10.496Z,97325.13
2022-09-09T06:24:19.425Z,97294.56
2022-09-09T06:29:26.824Z,97325.00
2022-09-09T06:34:30.771Z,97295.41
2022-09-09T06:39:35.306Z,97309.75
2022-09-09T06:44:52.426Z,97343.50
2022-09-09T06:49:56.038Z,97309.72
2022-09-09T06:55:00.738Z,97299.53
2022-09-09T07:00:05.529Z,97357.25
2022-09-09T07:05:10.502Z,97240.88
2022-09-09T07:10:14.284Z,97244.50
2022-09-09T07:15:20.986Z,97235.66
2022-09-09T07:20:24.695Z,97296.19
2022-09-09T07:25:31.987Z,97260.94
2022-09-09T07:30:35.839Z,97332.66
2022-09-09T07:35:39.897Z,97313.34
2022-09-09T07:46:00.165Z,97320.84
2022-09-09T07:51:24.524Z,97331.56
2022-09-09T07:56:30.111Z,97317.63
2022-09-09T08:01:39.428Z,97327.94
2022-09-09T08:06:45.719Z,97320.06
2022-09-09T08:11:49.363Z,97301.59
2022-09-09T08:16:55.831Z,97254.47
2022-09-09T08:22:00.147Z,97226.31
2022-09-09T08:27:03.914Z,97344.09
2022-09-09T08:32:07.770Z,97279.09
2022-09-09T08:37:12.021Z,97252.75
2022-09-09T08:42:24.798Z,97324.44
2022-09-09T08:47:55.162Z,97340.13
2022-09-09T08:53:13.381Z,97288.75
2022-09-09T08:58:27.710Z,97337.63
2022-09-09T09:04:03.336Z,97303.13
2022-09-09T09:09:13.654Z,97298.25
2022-09-09T09:19:39.961Z,97254.94
2022-09-09T13:28:04.426Z,97290.19
2022-09-09T13:33:11.210Z,97267.41
2022-09-09T13:38:16.994Z,97190.81
2022-09-09T13:43:25.283Z,97240.34
2022-09-09T13:48:29.336Z,97227.00
2022-09-09T13:53:37.957Z,97201.81
2022-09-09T13:58:41.629Z,97247.72
2022-09-09T14:03:55.030Z,97250.19
2022-09-09T14:08:58.379Z,97158.78
2022-09-09T14:14:02.944Z,97228.03
2022-09-09T14:19:07.625Z,97263.47
2022-09-09T14:24:11.118Z,97231.06
2022-09-09T14:29:14.717Z,97284.88
2022-09-09T14:34:19.476Z,97228.25
2022-09-09T14:39:23.118Z,97243.16
2022-09-09T14:44:26.601Z,97239.97
2022-09-09T14:49:31.038Z,97205.28
2022-09-09T14:54:34.746Z,97236.09
2022-09-09T14:59:38.592Z,97231.03
2022-09-09T15:04:43.099Z,97163.72
2022-09-09T15:09:49.505Z,97216.13
2022-09-09T15:14:52.997Z,97170.63
2022-09-09T15:19:56.769Z,97227.84
2022-09-09T15:25:00.476Z,97225.59
2022-09-09T15:30:07.484Z,97293.97
2022-09-09T15:35:13.098Z,97225.50
2022-09-09T15:40:16.761Z,97157.81
2022-09-09T15:45:20.586Z,97263.84
2022-09-09T15:50:25.388Z,97207.34
2022-09-09T15:55:29.039Z,97241.94
2022-09-09T16:00:33.716Z,97307.13
2022-09-09T16:05:37.193Z,97303.22
2022-09-09T16:10:40.773Z,97321.66
2022-09-09T16:15:44.496Z,97266.03
2022-09-09T16:20:56.685Z,97310.91
2022-09-09T16:26:13.682Z,97263.22
2022-09-09T16:31:23.580Z,97256.72
2022-09-09T16:36:35.791Z,97319.34
2022-09-09T16:41:41.144Z,97297.66
2022-09-09T16:46:46.064Z,97315.22
2022-09-09T16:51:55.339Z,97290.75
2022-09-09T16:56:59.541Z,97285.31
2022-09-09T17:02:07.048Z,97318.00
2022-09-09T17:07:11.916Z,97265.31
2022-09-09T17:12:18.194Z,97264.13
